sensor_id;sensor_type;location;lat;lon;timestamp;P1;durP1;ratioP1;P2;durP2;ratioP2
36575;SDS011;45700;50.930;5.168;2023-06-22T00:00:05;2.30;;;1.58;;
36575;SDS011;45700;50.930;5.168;2023-06-22T00:04:11;3.15;;;1.70;;
36575;SDS011;45700;50.930;5.168;2023-06-22T00:08:12;3.70;;;1.83;;
36575;SDS011;45700;50.930;5.168;2023-06-22T00:12:13;3.63;;;2.20;;
36575;SDS011;45700;50.930;5.168;2023-06-22T00:16:14;3.53;;;1.80;;
36575;SDS011;45700;50.930;5.168;2023-06-22T00:20:15;3.83;;;1.98;;
36575;SDS011;45700;50.930;5.168;2023-06-22T00:24:21;5.65;;;1.95;;
36575;SDS011;45700;50.930;5.168;2023-06-22T00:28:22;4.47;;;2.22;;
36575;SDS011;45700;50.930;5.168;2023-06-22T00:32:23;10.57;;;2.33;;
36575;SDS011;45700;50.930;5.168;2023-06-22T00:36:24;3.92;;;1.98;;
36575;SDS011;45700;50.930;5.168;2023-06-22T00:40:25;3.78;;;1.95;;
36575;SDS011;45700;50.930;5.168;2023-06-22T00:44:26;3.38;;;1.80;;
36575;SDS011;45700;50.930;5.168;2023-06-22T00:48:27;4.63;;;1.40;;
36575;SDS011;45700;50.930;5.168;2023-06-22T00:52:28;4.38;;;2.30;;
36575;SDS011;45700;50.930;5.168;2023-06-22T00:56:31;3.10;;;1.80;;
36575;SDS011;45700;50.930;5.168;2023-06-22T01:00:33;7.07;;;2.20;;
36575;SDS011;45700;50.930;5.168;2023-06-22T01:04:35;3.75;;;2.10;;
36575;SDS011;45700;50.930;5.168;2023-06-22T01:12:45;2.28;;;1.98;;
36575;SDS011;45700;50.930;5.168;2023-06-22T01:16:49;3.72;;;2.03;;
36575;SDS011;45700;50.930;5.168;2023-06-22T01:20:53;4.95;;;2.35;;
36575;SDS011;45700;50.930;5.168;2023-06-22T01:29:08;3.30;;;1.80;;
36575;SDS011;45700;50.930;5.168;2023-06-22T01:33:12;4.43;;;2.60;;
36575;SDS011;45700;50.930;5.168;2023-06-22T01:37:14;3.38;;;1.83;;
36575;SDS011;45700;50.930;5.168;2023-06-22T01:41:16;3.20;;;2.05;;
36575;SDS011;45700;50.930;5.168;2023-06-22T01:45:17;5.60;;;2.63;;
36575;SDS011;45700;50.930;5.168;2023-06-22T01:49:19;5.35;;;2.25;;
36575;SDS011;45700;50.930;5.168;2023-06-22T01:53:23;6.22;;;3.15;;
36575;SDS011;45700;50.930;5.168;2023-06-22T01:57:25;6.00;;;3.60;;
36575;SDS011;45700;50.930;5.168;2023-06-22T02:01:27;7.95;;;3.67;;
36575;SDS011;45700;50.930;5.168;2023-06-22T02:05:31;7.00;;;3.50;;
36575;SDS011;45700;50.930;5.168;2023-06-22T02:09:34;6.10;;;3.80;;
36575;SDS011;45700;50.930;5.168;2023-06-22T02:13:36;8.75;;;4.30;;
36575;SDS011;45700;50.930;5.168;2023-06-22T02:17:42;8.77;;;4.22;;
36575;SDS011;45700;50.930;5.168;2023-06-22T02:21:45;10.50;;;5.20;;
36575;SDS011;45700;50.930;5.168;2023-06-22T02:25:46;10.63;;;5.22;;
36575;SDS011;45700;50.930;5.168;2023-06-22T02:29:47;12.25;;;5.28;;
36575;SDS011;45700;50.930;5.168;2023-06-22T02:33:48;8.85;;;5.22;;
36575;SDS011;45700;50.930;5.168;2023-06-22T02:37:49;11.52;;;5.35;;
36575;SDS011;45700;50.930;5.168;2023-06-22T02:41:53;10.38;;;5.78;;
36575;SDS011;45700;50.930;5.168;2023-06-22T02:45:55;15.27;;;6.43;;
36575;SDS011;45700;50.930;5.168;2023-06-22T02:49:56;15.77;;;6.05;;
36575;SDS011;45700;50.930;5.168;2023-06-22T02:53:57;14.55;;;6.80;;
36575;SDS011;45700;50.930;5.168;2023-06-22T02:57:58;14.23;;;6.85;;
36575;SDS011;45700;50.930;5.168;2023-06-22T03:01:59;18.35;;;6.88;;
36575;SDS011;45700;50.930;5.168;2023-06-22T03:06:00;14.35;;;6.50;;
36575;SDS011;45700;50.930;5.168;2023-06-22T03:10:01;14.88;;;7.80;;
36575;SDS011;45700;50.930;5.168;2023-06-22T03:14:02;14.45;;;7.78;;
36575;SDS011;45700;50.930;5.168;2023-06-22T03:18:03;15.10;;;7.18;;
36575;SDS011;45700;50.930;5.168;2023-06-22T03:22:05;18.77;;;8.43;;
36575;SDS011;45700;50.930;5.168;2023-06-22T03:26:08;14.73;;;7.72;;
36575;SDS011;45700;50.930;5.168;2023-06-22T03:30:09;17.88;;;8.73;;
36575;SDS011;45700;50.930;5.168;2023-06-22T03:34:11;18.50;;;8.45;;
36575;SDS011;45700;50.930;5.168;2023-06-22T03:38:12;17.67;;;8.10;;
36575;SDS011;45700;50.930;5.168;2023-06-22T03:42:13;18.45;;;9.65;;
36575;SDS011;45700;50.930;5.168;2023-06-22T03:46:14;19.20;;;8.98;;
36575;SDS011;45700;50.930;5.168;2023-06-22T03:50:15;17.75;;;9.07;;
36575;SDS011;45700;50.930;5.168;2023-06-22T03:54:16;18.38;;;9.07;;
36575;SDS011;45700;50.930;5.168;2023-06-22T03:58:17;19.00;;;9.70;;
36575;SDS011;45700;50.930;5.168;2023-06-22T04:02:19;18.65;;;9.13;;
36575;SDS011;45700;50.930;5.168;2023-06-22T04:06:19;19.63;;;8.48;;
36575;SDS011;45700;50.930;5.168;2023-06-22T04:10:22;16.55;;;8.88;;
36575;SDS011;45700;50.930;5.168;2023-06-22T04:14:23;24.42;;;10.35;;
36575;SDS011;45700;50.930;5.168;2023-06-22T04:18:24;20.05;;;10.05;;
36575;SDS011;45700;50.930;5.168;2023-06-22T04:22:26;19.35;;;10.05;;
36575;SDS011;45700;50.930;5.168;2023-06-22T04:26:27;21.42;;;9.80;;
36575;SDS011;45700;50.930;5.168;2023-06-22T04:30:28;20.75;;;9.93;;
36575;SDS011;45700;50.930;5.168;2023-06-22T04:34:31;19.75;;;9.82;;
36575;SDS011;45700;50.930;5.168;2023-06-22T04:38:32;19.77;;;10.70;;
36575;SDS011;45700;50.930;5.168;2023-06-22T04:42:34;19.98;;;10.43;;
36575;SDS011;45700;50.930;5.168;2023-06-22T04:46:37;25.33;;;10.85;;
36575;SDS011;45700;50.930;5.168;2023-06-22T04:50:38;23.15;;;11.25;;
36575;SDS011;45700;50.930;5.168;2023-06-22T04:54:39;21.75;;;9.65;;
36575;SDS011;45700;50.930;5.168;2023-06-22T04:58:47;23.35;;;10.90;;
36575;SDS011;45700;50.930;5.168;2023-06-22T05:02:48;22.08;;;10.70;;
36575;SDS011;45700;50.930;5.168;2023-06-22T05:06:50;20.90;;;10.75;;
36575;SDS011;45700;50.930;5.168;2023-06-22T05:10:51;21.33;;;11.20;;
36575;SDS011;45700;50.930;5.168;2023-06-22T05:14:52;22.15;;;11.07;;
36575;SDS011;45700;50.930;5.168;2023-06-22T05:18:53;21.73;;;11.48;;
36575;SDS011;45700;50.930;5.168;2023-06-22T05:22:54;25.27;;;10.77;;
36575;SDS011;45700;50.930;5.168;2023-06-22T05:26:55;21.75;;;10.73;;
36575;SDS011;45700;50.930;5.168;2023-06-22T05:30:57;21.35;;;10.13;;
36575;SDS011;45700;50.930;5.168;2023-06-22T05:34:58;23.83;;;10.90;;
36575;SDS011;45700;50.930;5.168;2023-06-22T05:38:58;23.40;;;11.30;;
36575;SDS011;45700;50.930;5.168;2023-06-22T05:42:59;22.00;;;10.65;;
36575;SDS011;45700;50.930;5.168;2023-06-22T05:47:01;20.63;;;11.02;;
36575;SDS011;45700;50.930;5.168;2023-06-22T05:51:02;18.13;;;10.45;;
36575;SDS011;45700;50.930;5.168;2023-06-22T05:55:04;29.50;;;10.98;;
36575;SDS011;45700;50.930;5.168;2023-06-22T05:59:05;21.00;;;10.57;;
36575;SDS011;45700;50.930;5.168;2023-06-22T06:03:09;22.45;;;10.82;;
36575;SDS011;45700;50.930;5.168;2023-06-22T06:07:10;28.25;;;12.75;;
36575;SDS011;45700;50.930;5.168;2023-06-22T06:11:11;23.83;;;10.93;;
36575;SDS011;45700;50.930;5.168;2023-06-22T06:15:12;21.45;;;11.15;;
36575;SDS011;45700;50.930;5.168;2023-06-22T06:19:13;25.80;;;12.65;;
36575;SDS011;45700;50.930;5.168;2023-06-22T06:23:14;20.45;;;11.07;;
36575;SDS011;45700;50.930;5.168;2023-06-22T06:27:15;26.35;;;12.32;;
36575;SDS011;45700;50.930;5.168;2023-06-22T06:31:18;22.35;;;10.75;;
36575;SDS011;45700;50.930;5.168;2023-06-22T06:35:20;25.27;;;11.88;;
36575;SDS011;45700;50.930;5.168;2023-06-22T06:39:22;25.13;;;10.80;;
36575;SDS011;45700;50.930;5.168;2023-06-22T06:43:23;20.20;;;10.52;;
36575;SDS011;45700;50.930;5.168;2023-06-22T06:47:24;21.50;;;10.23;;
36575;SDS011;45700;50.930;5.168;2023-06-22T06:51:25;23.40;;;10.30;;
36575;SDS011;45700;50.930;5.168;2023-06-22T06:55:26;21.20;;;10.38;;
36575;SDS011;45700;50.930;5.168;2023-06-22T06:59:30;24.45;;;10.63;;
36575;SDS011;45700;50.930;5.168;2023-06-22T07:03:31;24.10;;;9.35;;
36575;SDS011;45700;50.930;5.168;2023-06-22T07:07:33;25.40;;;10.13;;
36575;SDS011;45700;50.930;5.168;2023-06-22T07:11:34;24.25;;;9.85;;
36575;SDS011;45700;50.930;5.168;2023-06-22T07:15:37;24.35;;;9.50;;
36575;SDS011;45700;50.930;5.168;2023-06-22T07:19:38;26.40;;;10.43;;
36575;SDS011;45700;50.930;5.168;2023-06-22T07:23:39;29.45;;;8.30;;
36575;SDS011;45700;50.930;5.168;2023-06-22T07:27:44;18.55;;;9.75;;
36575;SDS011;45700;50.930;5.168;2023-06-22T07:31:45;20.95;;;9.23;;
36575;SDS011;45700;50.930;5.168;2023-06-22T07:35:46;30.13;;;9.80;;
36575;SDS011;45700;50.930;5.168;2023-06-22T07:39:48;19.65;;;9.52;;
36575;SDS011;45700;50.930;5.168;2023-06-22T07:43:53;21.67;;;9.35;;
36575;SDS011;45700;50.930;5.168;2023-06-22T07:47:54;17.33;;;8.55;;
36575;SDS011;45700;50.930;5.168;2023-06-22T07:51:55;15.02;;;7.85;;
36575;SDS011;45700;50.930;5.168;2023-06-22T07:55:56;15.88;;;7.85;;
36575;SDS011;45700;50.930;5.168;2023-06-22T07:59:57;14.90;;;8.50;;
36575;SDS011;45700;50.930;5.168;2023-06-22T08:03:59;12.85;;;8.07;;
36575;SDS011;45700;50.930;5.168;2023-06-22T08:08:00;17.65;;;9.13;;
36575;SDS011;45700;50.930;5.168;2023-06-22T08:12:01;16.42;;;8.82;;
36575;SDS011;45700;50.930;5.168;2023-06-22T08:16:02;15.40;;;8.68;;
36575;SDS011;45700;50.930;5.168;2023-06-22T08:20:04;16.67;;;9.40;;
36575;SDS011;45700;50.930;5.168;2023-06-22T08:24:09;15.48;;;9.02;;
36575;SDS011;45700;50.930;5.168;2023-06-22T08:28:10;18.20;;;9.80;;
36575;SDS011;45700;50.930;5.168;2023-06-22T08:32:13;15.20;;;9.77;;
36575;SDS011;45700;50.930;5.168;2023-06-22T08:36:14;17.45;;;9.30;;
36575;SDS011;45700;50.930;5.168;2023-06-22T08:40:16;19.88;;;10.88;;
36575;SDS011;45700;50.930;5.168;2023-06-22T08:44:18;15.18;;;10.07;;
36575;SDS011;45700;50.930;5.168;2023-06-22T08:48:19;20.10;;;11.07;;
36575;SDS011;45700;50.930;5.168;2023-06-22T08:52:20;22.08;;;11.07;;
36575;SDS011;45700;50.930;5.168;2023-06-22T08:56:23;20.52;;;11.07;;
36575;SDS011;45700;50.930;5.168;2023-06-22T09:00:24;19.70;;;11.30;;
36575;SDS011;45700;50.930;5.168;2023-06-22T09:04:25;19.45;;;11.05;;
36575;SDS011;45700;50.930;5.168;2023-06-22T09:08:26;20.52;;;11.40;;
36575;SDS011;45700;50.930;5.168;2023-06-22T09:12:27;17.38;;;10.65;;
36575;SDS011;45700;50.930;5.168;2023-06-22T09:16:30;19.20;;;10.65;;
36575;SDS011;45700;50.930;5.168;2023-06-22T09:20:31;18.85;;;11.15;;
36575;SDS011;45700;50.930;5.168;2023-06-22T09:24:32;18.30;;;10.82;;
36575;SDS011;45700;50.930;5.168;2023-06-22T09:28:34;24.23;;;12.02;;
36575;SDS011;45700;50.930;5.168;2023-06-22T09:32:35;24.40;;;12.18;;
36575;SDS011;45700;50.930;5.168;2023-06-22T09:36:36;21.02;;;11.85;;
36575;SDS011;45700;50.930;5.168;2023-06-22T09:40:39;24.33;;;11.60;;
36575;SDS011;45700;50.930;5.168;2023-06-22T09:44:40;19.00;;;10.63;;
36575;SDS011;45700;50.930;5.168;2023-06-22T09:48:41;25.75;;;12.40;;
36575;SDS011;45700;50.930;5.168;2023-06-22T09:52:43;20.17;;;11.30;;
36575;SDS011;45700;50.930;5.168;2023-06-22T09:56:46;22.60;;;12.10;;
36575;SDS011;45700;50.930;5.168;2023-06-22T10:00:47;25.77;;;13.30;;
36575;SDS011;45700;50.930;5.168;2023-06-22T10:04:48;28.83;;;14.10;;
36575;SDS011;45700;50.930;5.168;2023-06-22T10:08:49;29.17;;;13.55;;
36575;SDS011;45700;50.930;5.168;2023-06-22T10:12:54;34.90;;;15.70;;
36575;SDS011;45700;50.930;5.168;2023-06-22T10:16:55;25.30;;;14.00;;
36575;SDS011;45700;50.930;5.168;2023-06-22T10:20:56;31.77;;;15.98;;
36575;SDS011;45700;50.930;5.168;2023-06-22T10:24:57;29.58;;;15.68;;
36575;SDS011;45700;50.930;5.168;2023-06-22T10:28:59;33.30;;;16.05;;
36575;SDS011;45700;50.930;5.168;2023-06-22T10:33:00;32.83;;;16.77;;
36575;SDS011;45700;50.930;5.168;2023-06-22T10:37:01;35.58;;;16.95;;
36575;SDS011;45700;50.930;5.168;2023-06-22T10:41:02;38.92;;;19.05;;
36575;SDS011;45700;50.930;5.168;2023-06-22T10:45:03;45.30;;;20.38;;
36575;SDS011;45700;50.930;5.168;2023-06-22T10:49:06;44.67;;;21.90;;
36575;SDS011;45700;50.930;5.168;2023-06-22T10:53:16;49.03;;;23.83;;
36575;SDS011;45700;50.930;5.168;2023-06-22T10:57:17;51.90;;;23.65;;
36575;SDS011;45700;50.930;5.168;2023-06-22T11:01:18;57.28;;;25.08;;
36575;SDS011;45700;50.930;5.168;2023-06-22T11:05:20;54.95;;;27.55;;
36575;SDS011;45700;50.930;5.168;2023-06-22T11:09:21;57.65;;;27.20;;
36575;SDS011;45700;50.930;5.168;2023-06-22T11:13:22;55.90;;;26.83;;
36575;SDS011;45700;50.930;5.168;2023-06-22T11:17:23;62.20;;;29.77;;
36575;SDS011;45700;50.930;5.168;2023-06-22T11:21:24;63.45;;;28.88;;
36575;SDS011;45700;50.930;5.168;2023-06-22T11:25:25;74.25;;;31.23;;
36575;SDS011;45700;50.930;5.168;2023-06-22T11:29:26;63.35;;;31.33;;
36575;SDS011;45700;50.930;5.168;2023-06-22T11:33:27;69.40;;;31.10;;
36575;SDS011;45700;50.930;5.168;2023-06-22T11:37:28;77.70;;;33.60;;
36575;SDS011;45700;50.930;5.168;2023-06-22T11:41:29;60.50;;;29.38;;
36575;SDS011;45700;50.930;5.168;2023-06-22T11:45:30;58.53;;;28.80;;
36575;SDS011;45700;50.930;5.168;2023-06-22T11:49:31;55.70;;;26.55;;
36575;SDS011;45700;50.930;5.168;2023-06-22T11:53:32;58.75;;;27.77;;
36575;SDS011;45700;50.930;5.168;2023-06-22T11:57:34;60.83;;;26.92;;
36575;SDS011;45700;50.930;5.168;2023-06-22T12:01:36;60.10;;;27.38;;
36575;SDS011;45700;50.930;5.168;2023-06-22T12:05:37;52.33;;;27.48;;
36575;SDS011;45700;50.930;5.168;2023-06-22T12:09:38;48.80;;;25.60;;
36575;SDS011;45700;50.930;5.168;2023-06-22T12:13:39;56.20;;;26.08;;
36575;SDS011;45700;50.930;5.168;2023-06-22T12:17:40;54.90;;;26.80;;
36575;SDS011;45700;50.930;5.168;2023-06-22T12:21:41;53.08;;;25.33;;
36575;SDS011;45700;50.930;5.168;2023-06-22T12:25:45;57.70;;;27.08;;
36575;SDS011;45700;50.930;5.168;2023-06-22T12:29:46;52.03;;;25.52;;
36575;SDS011;45700;50.930;5.168;2023-06-22T12:33:47;54.72;;;26.88;;
36575;SDS011;45700;50.930;5.168;2023-06-22T12:37:48;61.58;;;28.70;;
36575;SDS011;45700;50.930;5.168;2023-06-22T12:41:50;56.58;;;27.33;;
36575;SDS011;45700;50.930;5.168;2023-06-22T12:45:50;56.53;;;28.73;;
36575;SDS011;45700;50.930;5.168;2023-06-22T12:49:53;59.25;;;29.92;;
36575;SDS011;45700;50.930;5.168;2023-06-22T12:53:54;56.70;;;27.98;;
36575;SDS011;45700;50.930;5.168;2023-06-22T12:57:55;61.90;;;28.63;;
36575;SDS011;45700;50.930;5.168;2023-06-22T13:01:56;55.78;;;26.83;;
36575;SDS011;45700;50.930;5.168;2023-06-22T13:05:57;55.53;;;28.55;;
36575;SDS011;45700;50.930;5.168;2023-06-22T13:09:58;56.03;;;26.48;;
36575;SDS011;45700;50.930;5.168;2023-06-22T13:13:59;59.83;;;27.77;;
36575;SDS011;45700;50.930;5.168;2023-06-22T13:18:00;59.63;;;27.75;;
36575;SDS011;45700;50.930;5.168;2023-06-22T13:22:01;56.17;;;27.08;;
36575;SDS011;45700;50.930;5.168;2023-06-22T13:26:03;50.85;;;25.73;;
36575;SDS011;45700;50.930;5.168;2023-06-22T13:30:05;56.08;;;27.35;;
36575;SDS011;45700;50.930;5.168;2023-06-22T13:34:06;53.17;;;26.00;;
36575;SDS011;45700;50.930;5.168;2023-06-22T13:38:07;57.28;;;26.67;;
36575;SDS011;45700;50.930;5.168;2023-06-22T13:42:08;56.72;;;27.83;;
36575;SDS011;45700;50.930;5.168;2023-06-22T13:46:09;62.78;;;26.85;;
36575;SDS011;45700;50.930;5.168;2023-06-22T13:50:10;52.83;;;25.90;;
36575;SDS011;45700;50.930;5.168;2023-06-22T13:54:12;59.63;;;27.77;;
36575;SDS011;45700;50.930;5.168;2023-06-22T13:58:13;59.97;;;28.02;;
36575;SDS011;45700;50.930;5.168;2023-06-22T14:02:14;57.25;;;28.20;;
36575;SDS011;45700;50.930;5.168;2023-06-22T14:06:16;61.15;;;29.15;;
36575;SDS011;45700;50.930;5.168;2023-06-22T14:10:17;59.13;;;29.23;;
36575;SDS011;45700;50.930;5.168;2023-06-22T14:14:18;57.17;;;29.33;;
36575;SDS011;45700;50.930;5.168;2023-06-22T14:18:19;58.40;;;28.75;;
36575;SDS011;45700;50.930;5.168;2023-06-22T14:22:22;54.85;;;26.58;;
36575;SDS011;45700;50.930;5.168;2023-06-22T14:26:23;56.42;;;27.30;;
36575;SDS011;45700;50.930;5.168;2023-06-22T14:30:24;55.28;;;27.05;;
36575;SDS011;45700;50.930;5.168;2023-06-22T14:34:25;50.80;;;25.98;;
36575;SDS011;45700;50.930;5.168;2023-06-22T14:38:26;52.35;;;25.23;;
36575;SDS011;45700;50.930;5.168;2023-06-22T14:42:27;53.35;;;25.02;;
36575;SDS011;45700;50.930;5.168;2023-06-22T14:46:30;45.92;;;23.17;;
36575;SDS011;45700;50.930;5.168;2023-06-22T14:50:31;43.60;;;22.23;;
36575;SDS011;45700;50.930;5.168;2023-06-22T14:54:32;37.97;;;19.60;;
36575;SDS011;45700;50.930;5.168;2023-06-22T14:58:33;34.42;;;17.17;;
36575;SDS011;45700;50.930;5.168;2023-06-22T15:02:36;38.35;;;18.60;;
36575;SDS011;45700;50.930;5.168;2023-06-22T15:06:37;29.85;;;16.88;;
36575;SDS011;45700;50.930;5.168;2023-06-22T15:10:38;29.88;;;15.68;;
36575;SDS011;45700;50.930;5.168;2023-06-22T15:14:42;28.15;;;15.35;;
36575;SDS011;45700;50.930;5.168;2023-06-22T15:18:43;30.42;;;14.90;;
36575;SDS011;45700;50.930;5.168;2023-06-22T15:22:45;28.08;;;13.98;;
36575;SDS011;45700;50.930;5.168;2023-06-22T15:26:46;22.88;;;13.30;;
36575;SDS011;45700;50.930;5.168;2023-06-22T15:30:48;23.17;;;12.32;;
36575;SDS011;45700;50.930;5.168;2023-06-22T15:34:49;24.08;;;12.10;;
36575;SDS011;45700;50.930;5.168;2023-06-22T15:38:51;18.98;;;10.90;;
36575;SDS011;45700;50.930;5.168;2023-06-22T15:42:52;14.38;;;8.00;;
36575;SDS011;45700;50.930;5.168;2023-06-22T15:46:53;17.42;;;8.68;;
36575;SDS011;45700;50.930;5.168;2023-06-22T15:50:54;12.48;;;7.10;;
36575;SDS011;45700;50.930;5.168;2023-06-22T15:54:55;14.20;;;7.53;;
36575;SDS011;45700;50.930;5.168;2023-06-22T15:58:58;11.70;;;7.57;;
36575;SDS011;45700;50.930;5.168;2023-06-22T16:02:59;15.50;;;7.45;;
36575;SDS011;45700;50.930;5.168;2023-06-22T16:07:00;11.52;;;5.90;;
36575;SDS011;45700;50.930;5.168;2023-06-22T16:11:01;10.25;;;5.80;;
36575;SDS011;45700;50.930;5.168;2023-06-22T16:15:02;11.38;;;6.18;;
36575;SDS011;45700;50.930;5.168;2023-06-22T16:19:03;9.07;;;5.40;;
36575;SDS011;45700;50.930;5.168;2023-06-22T16:23:04;11.48;;;5.80;;
36575;SDS011;45700;50.930;5.168;2023-06-22T16:27:05;8.07;;;5.20;;
36575;SDS011;45700;50.930;5.168;2023-06-22T16:31:06;12.43;;;6.25;;
36575;SDS011;45700;50.930;5.168;2023-06-22T16:35:07;12.20;;;6.18;;
36575;SDS011;45700;50.930;5.168;2023-06-22T16:39:09;13.15;;;7.03;;
36575;SDS011;45700;50.930;5.168;2023-06-22T16:43:10;15.73;;;7.88;;
36575;SDS011;45700;50.930;5.168;2023-06-22T16:47:11;18.70;;;9.60;;
36575;SDS011;45700;50.930;5.168;2023-06-22T16:51:12;24.55;;;11.27;;
36575;SDS011;45700;50.930;5.168;2023-06-22T16:55:13;26.08;;;13.02;;
36575;SDS011;45700;50.930;5.168;2023-06-22T16:59:14;31.67;;;15.80;;
36575;SDS011;45700;50.930;5.168;2023-06-22T17:03:17;29.05;;;16.23;;
36575;SDS011;45700;50.930;5.168;2023-06-22T17:07:22;36.83;;;18.40;;
36575;SDS011;45700;50.930;5.168;2023-06-22T17:11:23;36.75;;;19.60;;
36575;SDS011;45700;50.930;5.168;2023-06-22T17:15:25;39.22;;;20.20;;
36575;SDS011;45700;50.930;5.168;2023-06-22T17:19:30;42.53;;;22.00;;
36575;SDS011;45700;50.930;5.168;2023-06-22T17:23:31;48.55;;;22.73;;
36575;SDS011;45700;50.930;5.168;2023-06-22T17:27:33;48.28;;;21.88;;
36575;SDS011;45700;50.930;5.168;2023-06-22T17:31:37;40.55;;;22.90;;
36575;SDS011;45700;50.930;5.168;2023-06-22T17:35:45;50.40;;;25.17;;
36575;SDS011;45700;50.930;5.168;2023-06-22T17:39:51;46.40;;;24.20;;
36575;SDS011;45700;50.930;5.168;2023-06-22T17:43:52;53.55;;;25.83;;
36575;SDS011;45700;50.930;5.168;2023-06-22T17:47:53;58.97;;;28.92;;
36575;SDS011;45700;50.930;5.168;2023-06-22T17:51:54;60.17;;;28.80;;
36575;SDS011;45700;50.930;5.168;2023-06-22T17:55:58;57.55;;;28.63;;
36575;SDS011;45700;50.930;5.168;2023-06-22T18:00:01;57.53;;;28.95;;
36575;SDS011;45700;50.930;5.168;2023-06-22T18:04:12;60.15;;;29.65;;
36575;SDS011;45700;50.930;5.168;2023-06-22T18:08:13;67.60;;;31.48;;
36575;SDS011;45700;50.930;5.168;2023-06-22T18:12:15;70.07;;;32.72;;
36575;SDS011;45700;50.930;5.168;2023-06-22T18:16:17;66.00;;;32.28;;
36575;SDS011;45700;50.930;5.168;2023-06-22T18:20:18;73.78;;;33.30;;
36575;SDS011;45700;50.930;5.168;2023-06-22T18:24:22;68.05;;;32.00;;
36575;SDS011;45700;50.930;5.168;2023-06-22T18:28:23;67.47;;;32.60;;
36575;SDS011;45700;50.930;5.168;2023-06-22T18:32:24;64.68;;;31.33;;
36575;SDS011;45700;50.930;5.168;2023-06-22T18:36:29;64.88;;;32.58;;
36575;SDS011;45700;50.930;5.168;2023-06-22T18:40:30;67.57;;;32.17;;
36575;SDS011;45700;50.930;5.168;2023-06-22T18:44:32;63.97;;;30.98;;
36575;SDS011;45700;50.930;5.168;2023-06-22T18:48:36;71.43;;;32.08;;
36575;SDS011;45700;50.930;5.168;2023-06-22T18:52:37;65.50;;;30.48;;
36575;SDS011;45700;50.930;5.168;2023-06-22T18:56:50;63.75;;;28.95;;
36575;SDS011;45700;50.930;5.168;2023-06-22T19:00:52;64.55;;;30.55;;
36575;SDS011;45700;50.930;5.168;2023-06-22T19:04:54;60.25;;;28.85;;
36575;SDS011;45700;50.930;5.168;2023-06-22T19:09:14;55.08;;;28.80;;
36575;SDS011;45700;50.930;5.168;2023-06-22T19:17:26;50.00;;;24.15;;
36575;SDS011;45700;50.930;5.168;2023-06-22T19:21:27;51.75;;;22.55;;
36575;SDS011;45700;50.930;5.168;2023-06-22T19:25:29;43.55;;;22.42;;
36575;SDS011;45700;50.930;5.168;2023-06-22T19:29:33;34.95;;;19.52;;
36575;SDS011;45700;50.930;5.168;2023-06-22T19:33:34;28.83;;;16.08;;
36575;SDS011;45700;50.930;5.168;2023-06-22T19:37:36;26.98;;;15.55;;
36575;SDS011;45700;50.930;5.168;2023-06-22T19:41:38;27.17;;;15.90;;
36575;SDS011;45700;50.930;5.168;2023-06-22T19:45:39;27.40;;;14.63;;
36575;SDS011;45700;50.930;5.168;2023-06-22T19:49:41;30.38;;;14.68;;
36575;SDS011;45700;50.930;5.168;2023-06-22T19:53:42;26.77;;;13.32;;
36575;SDS011;45700;50.930;5.168;2023-06-22T19:57:44;27.10;;;14.52;;
36575;SDS011;45700;50.930;5.168;2023-06-22T20:01:46;25.20;;;13.90;;
36575;SDS011;45700;50.930;5.168;2023-06-22T20:05:47;28.27;;;14.43;;
36575;SDS011;45700;50.930;5.168;2023-06-22T20:10:04;26.33;;;14.13;;
36575;SDS011;45700;50.930;5.168;2023-06-22T20:14:05;31.85;;;16.08;;
36575;SDS011;45700;50.930;5.168;2023-06-22T20:18:06;34.72;;;16.48;;
36575;SDS011;45700;50.930;5.168;2023-06-22T20:22:08;33.88;;;17.20;;
36575;SDS011;45700;50.930;5.168;2023-06-22T20:26:10;39.00;;;18.23;;
36575;SDS011;45700;50.930;5.168;2023-06-22T20:30:15;39.63;;;19.58;;
36575;SDS011;45700;50.930;5.168;2023-06-22T20:34:20;39.60;;;19.25;;
36575;SDS011;45700;50.930;5.168;2023-06-22T20:38:21;41.47;;;20.33;;
36575;SDS011;45700;50.930;5.168;2023-06-22T20:42:25;47.28;;;21.80;;
36575;SDS011;45700;50.930;5.168;2023-06-22T20:46:26;42.72;;;20.42;;
36575;SDS011;45700;50.930;5.168;2023-06-22T20:50:29;44.20;;;21.00;;
36575;SDS011;45700;50.930;5.168;2023-06-22T20:54:31;39.95;;;19.85;;
36575;SDS011;45700;50.930;5.168;2023-06-22T20:58:33;42.17;;;22.00;;
36575;SDS011;45700;50.930;5.168;2023-06-22T21:02:34;46.65;;;22.17;;
36575;SDS011;45700;50.930;5.168;2023-06-22T21:06:35;50.35;;;23.05;;
36575;SDS011;45700;50.930;5.168;2023-06-22T21:10:36;52.00;;;23.60;;
36575;SDS011;45700;50.930;5.168;2023-06-22T21:14:37;50.10;;;24.70;;
36575;SDS011;45700;50.930;5.168;2023-06-22T21:18:38;48.60;;;25.15;;
36575;SDS011;45700;50.930;5.168;2023-06-22T21:22:39;54.42;;;26.63;;
36575;SDS011;45700;50.930;5.168;2023-06-22T21:26:40;61.67;;;28.33;;
36575;SDS011;45700;50.930;5.168;2023-06-22T21:30:41;62.42;;;28.05;;
36575;SDS011;45700;50.930;5.168;2023-06-22T21:34:42;65.82;;;30.60;;
36575;SDS011;45700;50.930;5.168;2023-06-22T21:38:43;72.32;;;33.15;;
36575;SDS011;45700;50.930;5.168;2023-06-22T21:42:47;80.82;;;33.92;;
36575;SDS011;45700;50.930;5.168;2023-06-22T21:46:49;72.90;;;34.92;;
36575;SDS011;45700;50.930;5.168;2023-06-22T21:50:50;75.22;;;34.08;;
36575;SDS011;45700;50.930;5.168;2023-06-22T21:54:51;74.45;;;35.10;;
36575;SDS011;45700;50.930;5.168;2023-06-22T21:58:52;76.68;;;34.97;;
36575;SDS011;45700;50.930;5.168;2023-06-22T22:02:53;79.60;;;35.30;;
36575;SDS011;45700;50.930;5.168;2023-06-22T22:06:54;81.65;;;36.33;;
36575;SDS011;45700;50.930;5.168;2023-06-22T22:10:55;86.90;;;36.78;;
36575;SDS011;45700;50.930;5.168;2023-06-22T22:14:56;79.72;;;36.20;;
36575;SDS011;45700;50.930;5.168;2023-06-22T22:18:57;82.45;;;37.13;;
36575;SDS011;45700;50.930;5.168;2023-06-22T22:22:58;81.80;;;35.67;;
36575;SDS011;45700;50.930;5.168;2023-06-22T22:26:59;83.40;;;35.63;;
36575;SDS011;45700;50.930;5.168;2023-06-22T22:31:00;78.93;;;33.53;;
36575;SDS011;45700;50.930;5.168;2023-06-22T22:35:01;80.47;;;34.60;;
36575;SDS011;45700;50.930;5.168;2023-06-22T22:39:02;76.50;;;34.30;;
36575;SDS011;45700;50.930;5.168;2023-06-22T22:43:04;75.07;;;32.05;;
36575;SDS011;45700;50.930;5.168;2023-06-22T22:47:05;71.65;;;32.13;;
36575;SDS011;45700;50.930;5.168;2023-06-22T22:51:06;77.45;;;31.23;;
36575;SDS011;45700;50.930;5.168;2023-06-22T22:55:08;71.68;;;33.08;;
36575;SDS011;45700;50.930;5.168;2023-06-22T22:59:09;77.78;;;34.13;;
36575;SDS011;45700;50.930;5.168;2023-06-22T23:03:10;76.38;;;33.67;;
36575;SDS011;45700;50.930;5.168;2023-06-22T23:07:11;83.10;;;31.13;;
36575;SDS011;45700;50.930;5.168;2023-06-22T23:11:12;74.75;;;31.45;;
36575;SDS011;45700;50.930;5.168;2023-06-22T23:15:13;80.40;;;31.60;;
36575;SDS011;45700;50.930;5.168;2023-06-22T23:19:14;71.25;;;29.88;;
36575;SDS011;45700;50.930;5.168;2023-06-22T23:23:15;72.60;;;31.70;;
36575;SDS011;45700;50.930;5.168;2023-06-22T23:27:16;72.47;;;30.48;;
36575;SDS011;45700;50.930;5.168;2023-06-22T23:31:17;75.70;;;31.73;;
36575;SDS011;45700;50.930;5.168;2023-06-22T23:35:19;70.90;;;28.90;;
36575;SDS011;45700;50.930;5.168;2023-06-22T23:39:20;68.78;;;28.92;;
36575;SDS011;45700;50.930;5.168;2023-06-22T23:43:21;65.93;;;27.63;;
36575;SDS011;45700;50.930;5.168;2023-06-22T23:47:22;65.97;;;26.77;;
36575;SDS011;45700;50.930;5.168;2023-06-22T23:51:23;60.00;;;26.15;;